sensor_id;sensor_type;location;lat;lon;timestamp;pressure;altitude;pressure_sealevel;temperature
64488;BMP280;50864;45.050;39.014;2022-10-16T00:00:40;101761.69;;;11.06
64488;BMP280;50864;45.050;39.014;2022-10-16T00:03:07;101767.03;;;11.06
64488;BMP280;50864;45.050;39.014;2022-10-16T00:05:33;101764.09;;;11.08
64488;BMP280;50864;45.050;39.014;2022-10-16T00:08:03;101759.06;;;11.12
64488;BMP280;50864;45.050;39.014;2022-10-16T00:10:29;101768.44;;;11.14
64488;BMP280;50864;45.050;39.014;2022-10-16T00:12:55;101772.44;;;11.17
64488;BMP280;50864;45.050;39.014;2022-10-16T00:15:21;101774.06;;;11.18
64488;BMP280;50864;45.050;39.014;2022-10-16T00:17:47;101769.25;;;11.15
64488;BMP280;50864;45.050;39.014;2022-10-16T00:20:13;101768.72;;;11.13
64488;BMP280;50864;45.050;39.014;2022-10-16T00:22:39;101775.94;;;11.12
64488;BMP280;50864;45.050;39.014;2022-10-16T00:25:06;101775.94;;;11.12
64488;BMP280;50864;45.050;39.014;2022-10-16T00:27:33;101774.88;;;11.13
64488;BMP280;50864;45.050;39.014;2022-10-16T00:30:00;101772.19;;;11.13
64488;BMP280;50864;45.050;39.014;2022-10-16T00:32:27;101777.00;;;11.11
64488;BMP280;50864;45.050;39.014;2022-10-16T00:34:53;101780.50;;;11.12
64488;BMP280;50864;45.050;39.014;2022-10-16T00:37:20;101779.69;;;11.11
64488;BMP280;50864;45.050;39.014;2022-10-16T00:39:47;101774.00;;;11.07
64488;BMP280;50864;45.050;39.014;2022-10-16T00:42:17;101765.69;;;11.04
64488;BMP280;50864;45.050;39.014;2022-10-16T00:44:48;101771.88;;;11.04
64488;BMP280;50864;45.050;39.014;2022-10-16T00:52:31;101772.41;;;11.06
64488;BMP280;50864;45.050;39.014;2022-10-16T00:54:58;101780.44;;;11.06
64488;BMP280;50864;45.050;39.014;2022-10-16T00:57:24;101777.50;;;11.08
64488;BMP280;50864;45.050;39.014;2022-10-16T00:59:51;101772.72;;;11.10
64488;BMP280;50864;45.050;39.014;2022-10-16T01:02:17;101787.41;;;11.07
64488;BMP280;50864;45.050;39.014;2022-10-16T01:04:47;101779.09;;;11.04
64488;BMP280;50864;45.050;39.014;2022-10-16T01:07:26;101775.87;;;11.02
64488;BMP280;50864;45.050;39.014;2022-10-16T01:12:45;101770.22;;;10.98
64488;BMP280;50864;45.050;39.014;2022-10-16T01:15:27;101771.56;;;10.96
64488;BMP280;50864;45.050;39.014;2022-10-16T01:20:36;101790.81;;;10.88
64488;BMP280;50864;45.050;39.014;2022-10-16T01:28:33;101790.94;;;10.71
64488;BMP280;50864;45.050;39.014;2022-10-16T01:31:01;101788.53;;;10.70
64488;BMP280;50864;45.050;39.014;2022-10-16T01:33:42;101784.75;;;10.66
64488;BMP280;50864;45.050;39.014;2022-10-16T01:36:21;101787.94;;;10.63
64488;BMP280;50864;45.050;39.014;2022-10-16T01:38:51;101800.53;;;10.62
64488;BMP280;50864;45.050;39.014;2022-10-16T01:41:22;101796.22;;;10.61
64488;BMP280;50864;45.050;39.014;2022-10-16T01:44:02;101793.28;;;10.57
64488;BMP280;50864;45.050;39.014;2022-10-16T01:46:30;101795.63;;;10.54
64488;BMP280;50864;45.050;39.014;2022-10-16T01:48:57;101796.44;;;10.49
64488;BMP280;50864;45.050;39.014;2022-10-16T01:51:25;101784.34;;;10.47
64488;BMP280;50864;45.050;39.014;2022-10-16T01:53:55;101780.06;;;10.46
64488;BMP280;50864;45.050;39.014;2022-10-16T01:56:24;101784.34;;;10.47
64488;BMP280;50864;45.050;39.014;2022-10-16T01:58:55;101780.06;;;10.46
64488;BMP280;50864;45.050;39.014;2022-10-16T02:01:24;101788.31;;;10.44
64488;BMP280;50864;45.050;39.014;2022-10-16T02:03:54;101793.69;;;10.44
64488;BMP280;50864;45.050;39.014;2022-10-16T02:06:21;101795.63;;;10.49
64488;BMP280;50864;45.050;39.014;2022-10-16T02:08:49;101795.87;;;10.47
64488;BMP280;50864;45.050;39.014;2022-10-16T02:11:15;101792.87;;;10.44
64488;BMP280;50864;45.050;39.014;2022-10-16T02:13:53;101797.13;;;10.40
64488;BMP280;50864;45.050;39.014;2022-10-16T02:16:20;101792.81;;;10.39
64488;BMP280;50864;45.050;39.014;2022-10-16T02:18:46;101800.00;;;10.33
64488;BMP280;50864;45.050;39.014;2022-10-16T02:24:21;101802.63;;;10.28
64488;BMP280;50864;45.050;39.014;2022-10-16T02:26:56;101808.47;;;10.25
64488;BMP280;50864;45.050;39.014;2022-10-16T02:29:26;101798.88;;;10.24
64488;BMP280;50864;45.050;39.014;2022-10-16T02:31:59;101798.31;;;10.22
64488;BMP280;50864;45.050;39.014;2022-10-16T02:34:27;101800.44;;;10.20
64488;BMP280;50864;45.050;39.014;2022-10-16T02:36:54;101803.34;;;10.18
64488;BMP280;50864;45.050;39.014;2022-10-16T02:39:21;101792.34;;;10.15
64488;BMP280;50864;45.050;39.014;2022-10-16T02:41:48;101800.91;;;10.17
64488;BMP280;50864;45.050;39.014;2022-10-16T02:44:14;101796.09;;;10.14
64488;BMP280;50864;45.050;39.014;2022-10-16T02:46:40;101803.53;;;10.12
64488;BMP280;50864;45.050;39.014;2022-10-16T02:49:06;101806.50;;;10.10
64488;BMP280;50864;45.050;39.014;2022-10-16T02:51:32;101807.84;;;10.13
64488;BMP280;50864;45.050;39.014;2022-10-16T02:53:58;101804.91;;;10.14
64488;BMP280;50864;45.050;39.014;2022-10-16T02:56:24;101804.09;;;10.14
64488;BMP280;50864;45.050;39.014;2022-10-16T02:58:50;101801.72;;;10.17
64488;BMP280;50864;45.050;39.014;2022-10-16T03:01:16;101811.69;;;10.22
64488;BMP280;50864;45.050;39.014;2022-10-16T03:03:42;101816.25;;;10.22
64488;BMP280;50864;45.050;39.014;2022-10-16T03:06:08;101816.25;;;10.22
64488;BMP280;50864;45.050;39.014;2022-10-16T03:08:34;101818.09;;;10.21
64488;BMP280;50864;45.050;39.014;2022-10-16T03:11:00;101813.81;;;10.25
64488;BMP280;50864;45.050;39.014;2022-10-16T03:13:27;101816.00;;;10.28
64488;BMP280;50864;45.050;39.014;2022-10-16T03:15:53;101815.75;;;10.30
64488;BMP280;50864;45.050;39.014;2022-10-16T03:18:19;101819.81;;;10.32
64488;BMP280;50864;45.050;39.014;2022-10-16T03:20:45;101816.06;;;10.33
64488;BMP280;50864;45.050;39.014;2022-10-16T03:23:11;101813.13;;;10.35
64488;BMP280;50864;45.050;39.014;2022-10-16T03:25:38;101810.72;;;10.33
64488;BMP280;50864;45.050;39.014;2022-10-16T03:28:04;101814.47;;;10.32
64488;BMP280;50864;45.050;39.014;2022-10-16T03:30:30;101815.00;;;10.34
64488;BMP280;50864;45.050;39.014;2022-10-16T03:32:56;101817.69;;;10.34
64488;BMP280;50864;45.050;39.014;2022-10-16T03:35:23;101824.66;;;10.35
64488;BMP280;50864;45.050;39.014;2022-10-16T03:37:50;101816.37;;;10.37
64488;BMP280;50864;45.050;39.014;2022-10-16T03:40:16;101813.94;;;10.35
64488;BMP280;50864;45.050;39.014;2022-10-16T03:42:43;101817.44;;;10.36
64488;BMP280;50864;45.050;39.014;2022-10-16T03:45:10;101819.31;;;10.35
64488;BMP280;50864;45.050;39.014;2022-10-16T03:47:37;101821.97;;;10.35
64488;BMP280;50864;45.050;39.014;2022-10-16T03:50:03;101822.22;;;10.34
64488;BMP280;50864;45.050;39.014;2022-10-16T03:52:29;101822.50;;;10.32
64488;BMP280;50864;45.050;39.014;2022-10-16T03:54:56;101822.78;;;10.36
64488;BMP280;50864;45.050;39.014;2022-10-16T03:57:22;101829.25;;;10.40
64488;BMP280;50864;45.050;39.014;2022-10-16T03:59:47;101827.41;;;10.45
64488;BMP280;50864;45.050;39.014;2022-10-16T04:02:14;101822.88;;;10.51
64488;BMP280;50864;45.050;39.014;2022-10-16T04:04:40;101828.06;;;10.57
64488;BMP280;50864;45.050;39.014;2022-10-16T04:07:06;101826.78;;;10.65
64488;BMP280;50864;45.050;39.014;2022-10-16T04:09:31;101832.16;;;10.70
64488;BMP280;50864;45.050;39.014;2022-10-16T04:11:58;101837.03;;;10.78
64488;BMP280;50864;45.050;39.014;2022-10-16T04:14:23;101829.91;;;10.89
64488;BMP280;50864;45.050;39.014;2022-10-16T04:16:49;101821.66;;;10.95
64488;BMP280;50864;45.050;39.014;2022-10-16T04:19:16;101823.56;;;11.05
64488;BMP280;50864;45.050;39.014;2022-10-16T04:21:41;101826.56;;;11.14
64488;BMP280;50864;45.050;39.014;2022-10-16T04:24:07;101823.13;;;11.23
64488;BMP280;50864;45.050;39.014;2022-10-16T04:26:34;101832.34;;;11.42
64488;BMP280;50864;45.050;39.014;2022-10-16T04:28:59;101837.78;;;11.63
64488;BMP280;50864;45.050;39.014;2022-10-16T04:31:25;101838.38;;;11.80
64488;BMP280;50864;45.050;39.014;2022-10-16T04:33:52;101828.50;;;12.06
64488;BMP280;50864;45.050;39.014;2022-10-16T04:36:18;101829.63;;;12.35
64488;BMP280;50864;45.050;39.014;2022-10-16T04:38:43;101829.87;;;12.54
64488;BMP280;50864;45.050;39.014;2022-10-16T04:41:10;101837.37;;;12.77
64488;BMP280;50864;45.050;39.014;2022-10-16T04:43:35;101835.16;;;12.99
64488;BMP280;50864;45.050;39.014;2022-10-16T04:46:01;101840.19;;;13.26
64488;BMP280;50864;45.050;39.014;2022-10-16T04:48:31;101842.31;;;13.44
64488;BMP280;50864;45.050;39.014;2022-10-16T04:50:57;101841.97;;;13.51
64488;BMP280;50864;45.050;39.014;2022-10-16T04:53:22;101833.63;;;13.52
64488;BMP280;50864;45.050;39.014;2022-10-16T04:55:49;101842.78;;;13.51
64488;BMP280;50864;45.050;39.014;2022-10-16T04:58:15;101846.28;;;13.52
64488;BMP280;50864;45.050;39.014;2022-10-16T05:00:41;101844.94;;;13.54
64488;BMP280;50864;45.050;39.014;2022-10-16T05:03:07;101854.63;;;13.55
64488;BMP280;50864;45.050;39.014;2022-10-16T05:05:35;101842.25;;;13.49
64488;BMP280;50864;45.050;39.014;2022-10-16T05:08:02;101852.78;;;13.46
64488;BMP280;50864;45.050;39.014;2022-10-16T05:10:28;101859.47;;;13.48
64488;BMP280;50864;45.050;39.014;2022-10-16T05:12:54;101851.13;;;13.55
64488;BMP280;50864;45.050;39.014;2022-10-16T05:15:20;101858.56;;;13.73
64488;BMP280;50864;45.050;39.014;2022-10-16T05:17:46;101859.78;;;13.91
64488;BMP280;50864;45.050;39.014;2022-10-16T05:20:12;101853.75;;;14.09
64488;BMP280;50864;45.050;39.014;2022-10-16T05:22:38;101865.19;;;14.30
64488;BMP280;50864;45.050;39.014;2022-10-16T05:25:05;101866.84;;;14.54
64488;BMP280;50864;45.050;39.014;2022-10-16T05:27:31;101871.69;;;14.81
64488;BMP280;50864;45.050;39.014;2022-10-16T05:29:57;101877.00;;;15.15
64488;BMP280;50864;45.050;39.014;2022-10-16T05:32:23;101881.22;;;15.45
64488;BMP280;50864;45.050;39.014;2022-10-16T05:34:50;101880.34;;;15.68
64488;BMP280;50864;45.050;39.014;2022-10-16T05:37:16;101878.47;;;15.87
64488;BMP280;50864;45.050;39.014;2022-10-16T05:39:42;101885.53;;;16.02
64488;BMP280;50864;45.050;39.014;2022-10-16T05:42:08;101882.75;;;16.07
64488;BMP280;50864;45.050;39.014;2022-10-16T05:44:34;101888.94;;;16.07
64488;BMP280;50864;45.050;39.014;2022-10-16T05:47:00;101892.91;;;15.96
64488;BMP280;50864;45.050;39.014;2022-10-16T05:49:26;101893.22;;;15.95
64488;BMP280;50864;45.050;39.014;2022-10-16T05:51:52;101902.59;;;15.97
64488;BMP280;50864;45.050;39.014;2022-10-16T05:54:18;101902.72;;;15.92
64488;BMP280;50864;45.050;39.014;2022-10-16T05:56:44;101899.91;;;15.97
64488;BMP280;50864;45.050;39.014;2022-10-16T05:59:10;101895.38;;;16.11
64488;BMP280;50864;45.050;39.014;2022-10-16T06:01:36;101901.84;;;16.29
64488;BMP280;50864;45.050;39.014;2022-10-16T06:04:02;101893.53;;;16.58
64488;BMP280;50864;45.050;39.014;2022-10-16T06:06:28;101901.78;;;17.07
64488;BMP280;50864;45.050;39.014;2022-10-16T06:08:56;101891.44;;;17.23
64488;BMP280;50864;45.050;39.014;2022-10-16T06:11:25;101886.12;;;17.32
64488;BMP280;50864;45.050;39.014;2022-10-16T06:13:56;101887.19;;;17.44
64488;BMP280;50864;45.050;39.014;2022-10-16T06:16:24;101883.91;;;17.83
64488;BMP280;50864;45.050;39.014;2022-10-16T06:18:52;101882.16;;;18.09
64488;BMP280;50864;45.050;39.014;2022-10-16T06:21:20;101884.84;;;18.32
64488;BMP280;50864;45.050;39.014;2022-10-16T06:23:47;101874.31;;;18.61
64488;BMP280;50864;45.050;39.014;2022-10-16T06:26:15;101875.53;;;18.86
64488;BMP280;50864;45.050;39.014;2022-10-16T06:28:42;101871.03;;;18.81
64488;BMP280;50864;45.050;39.014;2022-10-16T06:31:10;101870.94;;;19.03
64488;BMP280;50864;45.050;39.014;2022-10-16T06:33:37;101873.81;;;19.33
64488;BMP280;50864;45.050;39.014;2022-10-16T06:36:09;101879.59;;;19.48
64488;BMP280;50864;45.050;39.014;2022-10-16T06:38:36;101874.63;;;19.59
64488;BMP280;50864;45.050;39.014;2022-10-16T06:41:03;101881.03;;;19.46
64488;BMP280;50864;45.050;39.014;2022-10-16T06:43:30;101874.94;;;19.49
64488;BMP280;50864;45.050;39.014;2022-10-16T06:46:02;101884.09;;;19.61
64488;BMP280;50864;45.050;39.014;2022-10-16T06:48:28;101873.22;;;19.53
64488;BMP280;50864;45.050;39.014;2022-10-16T06:53:26;101879.12;;;19.29
64488;BMP280;50864;45.050;39.014;2022-10-16T06:55:52;101884.03;;;19.19
64488;BMP280;50864;45.050;39.014;2022-10-16T06:58:19;101887.66;;;18.97
64488;BMP280;50864;45.050;39.014;2022-10-16T07:00:45;101887.34;;;18.98
64488;BMP280;50864;45.050;39.014;2022-10-16T07:03:11;101890.75;;;19.21
64488;BMP280;50864;45.050;39.014;2022-10-16T07:05:42;101880.50;;;19.18
64488;BMP280;50864;45.050;39.014;2022-10-16T07:08:09;101892.34;;;19.13
64488;BMP280;50864;45.050;39.014;2022-10-16T07:10:35;101888.97;;;18.99
64488;BMP280;50864;45.050;39.014;2022-10-16T07:13:01;101889.78;;;19.08
64488;BMP280;50864;45.050;39.014;2022-10-16T07:15:28;101887.25;;;19.29
64488;BMP280;50864;45.050;39.014;2022-10-16T07:17:54;101888.06;;;19.38
64488;BMP280;50864;45.050;39.014;2022-10-16T07:20:20;101885.66;;;19.45
64488;BMP280;50864;45.050;39.014;2022-10-16T07:22:46;101895.91;;;19.57
64488;BMP280;50864;45.050;39.014;2022-10-16T07:25:12;101885.50;;;19.59
64488;BMP280;50864;45.050;39.014;2022-10-16T07:27:38;101889.97;;;19.46
64488;BMP280;50864;45.050;39.014;2022-10-16T07:30:05;101888.88;;;19.47
64488;BMP280;50864;45.050;39.014;2022-10-16T07:32:31;101886.16;;;19.47
64488;BMP280;50864;45.050;39.014;2022-10-16T07:34:57;101887.91;;;19.43
64488;BMP280;50864;45.050;39.014;2022-10-16T07:37:24;101893.34;;;19.35
64488;BMP280;50864;45.050;39.014;2022-10-16T07:39:50;101892.16;;;19.19
64488;BMP280;50864;45.050;39.014;2022-10-16T07:42:15;101893.91;;;19.06
64488;BMP280;50864;45.050;39.014;2022-10-16T07:44:42;101896.16;;;19.04
64488;BMP280;50864;45.050;39.014;2022-10-16T07:47:08;101890.19;;;18.76
64488;BMP280;50864;45.050;39.014;2022-10-16T07:49:34;101900.59;;;18.52
64488;BMP280;50864;45.050;39.014;2022-10-16T07:52:01;101896.66;;;18.36
64488;BMP280;50864;45.050;39.014;2022-10-16T07:54:27;101885.47;;;18.29
64488;BMP280;50864;45.050;39.014;2022-10-16T07:56:52;101885.25;;;18.47
64488;BMP280;50864;45.050;39.014;2022-10-16T07:59:19;101877.31;;;18.59
64488;BMP280;50864;45.050;39.014;2022-10-16T08:01:45;101884.94;;;18.49
64488;BMP280;50864;45.050;39.014;2022-10-16T08:04:11;101896.12;;;18.56
64488;BMP280;50864;45.050;39.014;2022-10-16T08:06:39;101860.81;;;18.78
64488;BMP280;50864;45.050;39.014;2022-10-16T08:09:07;101889.44;;;19.01
64488;BMP280;50864;45.050;39.014;2022-10-16T08:11:33;101884.03;;;19.19
64488;BMP280;50864;45.050;39.014;2022-10-16T08:13:59;101876.06;;;19.31
64488;BMP280;50864;45.050;39.014;2022-10-16T08:16:25;101890.13;;;19.41
64488;BMP280;50864;45.050;39.014;2022-10-16T08:18:51;101891.91;;;19.54
64488;BMP280;50864;45.050;39.014;2022-10-16T08:21:20;101898.44;;;19.62
64488;BMP280;50864;45.050;39.014;2022-10-16T08:23:46;101893.81;;;19.54
64488;BMP280;50864;45.050;39.014;2022-10-16T08:26:12;101903.56;;;19.55
64488;BMP280;50864;45.050;39.014;2022-10-16T08:28:38;101899.25;;;19.62
64488;BMP280;50864;45.050;39.014;2022-10-16T08:31:09;101900.53;;;19.65
64488;BMP280;50864;45.050;39.014;2022-10-16T08:33:35;101888.72;;;19.52
64488;BMP280;50864;45.050;39.014;2022-10-16T08:36:03;101898.44;;;19.62
64488;BMP280;50864;45.050;39.014;2022-10-16T08:38:29;101907.38;;;19.62
64488;BMP280;50864;45.050;39.014;2022-10-16T08:44:18;101885.34;;;19.38
64488;BMP280;50864;45.050;39.014;2022-10-16T08:47:13;101896.84;;;19.44
64488;BMP280;50864;45.050;39.014;2022-10-16T08:49:42;101902.59;;;19.42
64488;BMP280;50864;45.050;39.014;2022-10-16T08:52:15;101901.00;;;19.41
64488;BMP280;50864;45.050;39.014;2022-10-16T08:54:44;101904.66;;;19.28
64488;BMP280;50864;45.050;39.014;2022-10-16T08:57:24;101899.88;;;19.34
64488;BMP280;50864;45.050;39.014;2022-10-16T08:59:51;101900.84;;;19.46
64488;BMP280;50864;45.050;39.014;2022-10-16T09:02:29;101909.28;;;19.62
64488;BMP280;50864;45.050;39.014;2022-10-16T09:05:03;101901.78;;;19.59
64488;BMP280;50864;45.050;39.014;2022-10-16T09:07:49;101905.31;;;19.77
64488;BMP280;50864;45.050;39.014;2022-10-16T09:21:02;101906.25;;;19.89
64488;BMP280;50864;45.050;39.014;2022-10-16T09:23:34;101891.44;;;19.78
64488;BMP280;50864;45.050;39.014;2022-10-16T09:26:01;101893.97;;;19.92
64488;BMP280;50864;45.050;39.014;2022-10-16T09:28:28;101904.97;;;19.95
64488;BMP280;50864;45.050;39.014;2022-10-16T09:30:54;101898.81;;;20.24
64488;BMP280;50864;45.050;39.014;2022-10-16T09:33:23;101895.38;;;20.53
64488;BMP280;50864;45.050;39.014;2022-10-16T09:35:52;101885.97;;;20.80
64488;BMP280;50864;45.050;39.014;2022-10-16T09:38:29;101888.06;;;21.24
64488;BMP280;50864;45.050;39.014;2022-10-16T09:40:58;101886.91;;;21.46
64488;BMP280;50864;45.050;39.014;2022-10-16T09:43:25;101894.97;;;21.21
64488;BMP280;50864;45.050;39.014;2022-10-16T09:45:59;101899.50;;;20.97
64488;BMP280;50864;45.050;39.014;2022-10-16T09:48:43;101902.28;;;20.80
64488;BMP280;50864;45.050;39.014;2022-10-16T09:51:19;101892.34;;;20.84
64488;BMP280;50864;45.050;39.014;2022-10-16T09:53:47;101901.72;;;20.65
64488;BMP280;50864;45.050;39.014;2022-10-16T09:56:23;101896.16;;;20.53
64488;BMP280;50864;45.050;39.014;2022-10-16T09:58:55;101903.38;;;20.58
64488;BMP280;50864;45.050;39.014;2022-10-16T10:01:24;101906.19;;;20.70
64488;BMP280;50864;45.050;39.014;2022-10-16T10:03:55;101898.81;;;20.70
64488;BMP280;50864;45.050;39.014;2022-10-16T10:06:32;101894.50;;;20.69
64488;BMP280;50864;45.050;39.014;2022-10-16T10:09:03;101891.47;;;20.71
64488;BMP280;50864;45.050;39.014;2022-10-16T10:11:47;101901.97;;;20.72
64488;BMP280;50864;45.050;39.014;2022-10-16T10:14:20;101899.31;;;20.64
64488;BMP280;50864;45.050;39.014;2022-10-16T10:16:47;101899.31;;;20.64
64488;BMP280;50864;45.050;39.014;2022-10-16T10:19:16;101895.31;;;20.70
64488;BMP280;50864;45.050;39.014;2022-10-16T10:21:42;101894.03;;;20.67
64488;BMP280;50864;45.050;39.014;2022-10-16T10:24:12;101900.16;;;20.56
64488;BMP280;50864;45.050;39.014;2022-10-16T10:26:47;101891.37;;;20.50
64488;BMP280;50864;45.050;39.014;2022-10-16T10:29:26;101889.78;;;20.49
64488;BMP280;50864;45.050;39.014;2022-10-16T10:35:01;101886.03;;;20.25
64488;BMP280;50864;45.050;39.014;2022-10-16T10:43:39;101889.81;;;19.94
64488;BMP280;50864;45.050;39.014;2022-10-16T10:46:04;101888.69;;;19.87
64488;BMP280;50864;45.050;39.014;2022-10-16T10:48:54;101879.88;;;19.90
64488;BMP280;50864;45.050;39.014;2022-10-16T10:57:10;101880.78;;;20.11
64488;BMP280;50864;45.050;39.014;2022-10-16T11:10:28;101888.53;;;19.92
64488;BMP280;50864;45.050;39.014;2022-10-16T11:13:00;101893.16;;;19.83
64488;BMP280;50864;45.050;39.014;2022-10-16T11:15:37;101893.97;;;19.83
64488;BMP280;50864;45.050;39.014;2022-10-16T11:21:09;101899.06;;;19.76
64488;BMP280;50864;45.050;39.014;2022-10-16T11:24:01;101895.91;;;19.74
64488;BMP280;50864;45.050;39.014;2022-10-16T11:26:34;101893.97;;;19.75
64488;BMP280;50864;45.050;39.014;2022-10-16T11:29:02;101892.84;;;19.67
64488;BMP280;50864;45.050;39.014;2022-10-16T11:37:02;101896.06;;;19.60
64488;BMP280;50864;45.050;39.014;2022-10-16T11:39:30;101900.19;;;19.58
64488;BMP280;50864;45.050;39.014;2022-10-16T11:42:03;101896.66;;;19.57
64488;BMP280;50864;45.050;39.014;2022-10-16T11:49:59;101910.28;;;19.66
64488;BMP280;50864;45.050;39.014;2022-10-16T11:52:36;101907.09;;;19.64
64488;BMP280;50864;45.050;39.014;2022-10-16T11:57:42;101914.56;;;19.41
64488;BMP280;50864;45.050;39.014;2022-10-16T12:00:28;101928.50;;;19.40
64488;BMP280;50864;45.050;39.014;2022-10-16T12:03:12;101917.25;;;19.33
64488;BMP280;50864;45.050;39.014;2022-10-16T12:08:25;101919.97;;;19.33
64488;BMP280;50864;45.050;39.014;2022-10-16T12:10:52;101927.81;;;19.26
64488;BMP280;50864;45.050;39.014;2022-10-16T12:13:28;101916.47;;;19.24
64488;BMP280;50864;45.050;39.014;2022-10-16T12:18:30;101920.78;;;19.25
64488;BMP280;50864;45.050;39.014;2022-10-16T12:20:57;101928.75;;;19.21
64488;BMP280;50864;45.050;39.014;2022-10-16T12:23:53;101931.78;;;19.20
64488;BMP280;50864;45.050;39.014;2022-10-16T12:26:32;101923.16;;;19.18
64488;BMP280;50864;45.050;39.014;2022-10-16T12:29:40;101925.88;;;19.18
64488;BMP280;50864;45.050;39.014;2022-10-16T12:32:31;101931.47;;;19.12
64488;BMP280;50864;45.050;39.014;2022-10-16T12:34:59;101934.31;;;19.07
64488;BMP280;50864;45.050;39.014;2022-10-16T12:37:31;101929.47;;;19.04
64488;BMP280;50864;45.050;39.014;2022-10-16T12:39:59;101948.47;;;19.04
64488;BMP280;50864;45.050;39.014;2022-10-16T12:44:52;101934.41;;;18.94
64488;BMP280;50864;45.050;39.014;2022-10-16T12:47:34;101934.28;;;18.90
64488;BMP280;50864;45.050;39.014;2022-10-16T12:50:01;101957.53;;;18.91
64488;BMP280;50864;45.050;39.014;2022-10-16T12:52:35;101949.19;;;18.79
64488;BMP280;50864;45.050;39.014;2022-10-16T12:55:04;101955.87;;;18.73
64488;BMP280;50864;45.050;39.014;2022-10-16T13:22:22;101972.41;;;18.41
64488;BMP280;50864;45.050;39.014;2022-10-16T13:28:00;101976.41;;;18.35
64488;BMP280;50864;45.050;39.014;2022-10-16T13:30:29;101983.50;;;18.31
64488;BMP280;50864;45.050;39.014;2022-10-16T13:33:02;101991.81;;;18.26
64488;BMP280;50864;45.050;39.014;2022-10-16T13:35:32;101987.94;;;18.27
64488;BMP280;50864;45.050;39.014;2022-10-16T13:38:17;101994.50;;;18.26
64488;BMP280;50864;45.050;39.014;2022-10-16T13:41:02;101991.91;;;18.21
64488;BMP280;50864;45.050;39.014;2022-10-16T13:43:34;101995.53;;;18.16
64488;BMP280;50864;45.050;39.014;2022-10-16T13:46:03;101991.34;;;18.10
64488;BMP280;50864;45.050;39.014;2022-10-16T13:48:31;101999.78;;;18.08
64488;BMP280;50864;45.050;39.014;2022-10-16T13:51:00;101994.97;;;18.05
64488;BMP280;50864;45.050;39.014;2022-10-16T13:53:26;102000.81;;;17.99
64488;BMP280;50864;45.050;39.014;2022-10-16T13:55:53;101989.59;;;17.92
64488;BMP280;50864;45.050;39.014;2022-10-16T13:58:19;102004.84;;;17.88
64488;BMP280;50864;45.050;39.014;2022-10-16T14:01:24;101989.00;;;17.81
64488;BMP280;50864;45.050;39.014;2022-10-16T14:03:51;101996.25;;;17.72
64488;BMP280;50864;45.050;39.014;2022-10-16T14:06:20;102005.28;;;17.68
64488;BMP280;50864;45.050;39.014;2022-10-16T14:09:09;102001.88;;;17.62
64488;BMP280;50864;45.050;39.014;2022-10-16T14:11:48;102002.00;;;17.57
64488;BMP280;50864;45.050;39.014;2022-10-16T14:14:15;101995.84;;;17.51
64488;BMP280;50864;45.050;39.014;2022-10-16T14:16:42;101997.88;;;17.46
64488;BMP280;50864;45.050;39.014;2022-10-16T14:19:22;102002.00;;;17.43
64488;BMP280;50864;45.050;39.014;2022-10-16T14:21:50;102000.19;;;17.39
64488;BMP280;50864;45.050;39.014;2022-10-16T14:24:33;101985.66;;;17.35
64488;BMP280;50864;45.050;39.014;2022-10-16T14:27:01;101996.00;;;17.33
64488;BMP280;50864;45.050;39.014;2022-10-16T14:29:29;102000.41;;;17.29
64488;BMP280;50864;45.050;39.014;2022-10-16T14:32:02;102004.47;;;17.26
64488;BMP280;50864;45.050;39.014;2022-10-16T14:34:37;101999.97;;;17.22
64488;BMP280;50864;45.050;39.014;2022-10-16T14:37:24;102010.09;;;17.16
64488;BMP280;50864;45.050;39.014;2022-10-16T14:39:52;102016.91;;;17.14
64488;BMP280;50864;45.050;39.014;2022-10-16T14:42:20;102013.22;;;17.09
64488;BMP280;50864;45.050;39.014;2022-10-16T14:44:50;102022.44;;;17.08
64488;BMP280;50864;45.050;39.014;2022-10-16T14:47:21;102030.31;;;17.05
64488;BMP280;50864;45.050;39.014;2022-10-16T14:49:53;102034.41;;;17.02
64488;BMP280;50864;45.050;39.014;2022-10-16T14:52:24;102036.41;;;16.97
64488;BMP280;50864;45.050;39.014;2022-10-16T14:54:51;102030.50;;;16.95
64488;BMP280;50864;45.050;39.014;2022-10-16T14:57:27;102028.38;;;16.92
64488;BMP280;50864;45.050;39.014;2022-10-16T14:59:53;102026.28;;;16.89
64488;BMP280;50864;45.050;39.014;2022-10-16T15:02:31;102037.97;;;16.84
64488;BMP280;50864;45.050;39.014;2022-10-16T15:05:07;102044.50;;;16.83
64488;BMP280;50864;45.050;39.014;2022-10-16T15:07:36;102041.28;;;16.81
64488;BMP280;50864;45.050;39.014;2022-10-16T15:10:02;102046.47;;;16.78
64488;BMP280;50864;45.050;39.014;2022-10-16T15:12:28;102048.66;;;16.76
64488;BMP280;50864;45.050;39.014;2022-10-16T15:14:54;102060.87;;;16.73
64488;BMP280;50864;45.050;39.014;2022-10-16T15:17:20;102061.16;;;16.72
64488;BMP280;50864;45.050;39.014;2022-10-16T15:19:46;102067.19;;;16.69
64488;BMP280;50864;45.050;39.014;2022-10-16T15:22:12;102069.34;;;16.67
64488;BMP280;50864;45.050;39.014;2022-10-16T15:24:38;102069.41;;;16.61
64488;BMP280;50864;45.050;39.014;2022-10-16T15:27:05;102072.41;;;16.60
64488;BMP280;50864;45.050;39.014;2022-10-16T15:29:30;102071.41;;;16.56
64488;BMP280;50864;45.050;39.014;2022-10-16T15:31:57;102071.47;;;16.51
64488;BMP280;50864;45.050;39.014;2022-10-16T15:34:22;102083.66;;;16.48
64488;BMP280;50864;45.050;39.014;2022-10-16T15:36:48;102082.34;;;16.46
64488;BMP280;50864;45.050;39.014;2022-10-16T15:39:17;102089.16;;;16.43
64488;BMP280;50864;45.050;39.014;2022-10-16T15:41:44;102092.44;;;16.40
64488;BMP280;50864;45.050;39.014;2022-10-16T15:44:10;102085.69;;;16.38
64488;BMP280;50864;45.050;39.014;2022-10-16T15:46:37;102084.69;;;16.34
64488;BMP280;50864;45.050;39.014;2022-10-16T15:49:03;102087.72;;;16.32